sensor_id;sensor_type;location;lat;lon;timestamp;temperature;humidity
16247;DHT22;8231;50.866;7.944;2023-02-15T00:00:25;-2.90;99.90
16247;DHT22;8231;50.866;7.944;2023-02-15T00:02:53;-2.90;99.90
16247;DHT22;8231;50.866;7.944;2023-02-15T00:05:21;-2.90;99.90
16247;DHT22;8231;50.866;7.944;2023-02-15T00:07:49;-2.90;99.90
16247;DHT22;8231;50.866;7.944;2023-02-15T00:10:17;-2.90;99.90
16247;DHT22;8231;50.866;7.944;2023-02-15T00:12:46;-3.00;99.90
16247;DHT22;8231;50.866;7.944;2023-02-15T00:15:15;-3.00;99.90
16247;DHT22;8231;50.866;7.944;2023-02-15T00:17:43;-3.00;99.90
16247;DHT22;8231;50.866;7.944;2023-02-15T00:20:11;-3.00;99.90
16247;DHT22;8231;50.866;7.944;2023-02-15T00:22:39;-3.00;99.90
16247;DHT22;8231;50.866;7.944;2023-02-15T00:25:07;-3.00;99.90
16247;DHT22;8231;50.866;7.944;2023-02-15T00:27:35;-3.10;99.90
16247;DHT22;8231;50.866;7.944;2023-02-15T00:30:06;-3.10;99.90
16247;DHT22;8231;50.866;7.944;2023-02-15T00:32:34;-3.10;99.90
16247;DHT22;8231;50.866;7.944;2023-02-15T00:35:03;-3.10;99.90
16247;DHT22;8231;50.866;7.944;2023-02-15T00:37:31;-3.10;99.90
16247;DHT22;8231;50.866;7.944;2023-02-15T00:40:03;-3.10;99.90
16247;DHT22;8231;50.866;7.944;2023-02-15T00:42:31;-3.20;99.90
16247;DHT22;8231;50.866;7.944;2023-02-15T00:45:00;-3.20;99.90
16247;DHT22;8231;50.866;7.944;2023-02-15T00:47:29;-3.20;99.90
16247;DHT22;8231;50.866;7.944;2023-02-15T00:49:57;-3.20;99.90
16247;DHT22;8231;50.866;7.944;2023-02-15T00:52:25;-3.20;99.90
16247;DHT22;8231;50.866;7.944;2023-02-15T00:54:55;-3.20;99.90
16247;DHT22;8231;50.866;7.944;2023-02-15T00:57:23;-3.30;99.90
16247;DHT22;8231;50.866;7.944;2023-02-15T00:59:52;-3.30;99.90
16247;DHT22;8231;50.866;7.944;2023-02-15T01:02:20;-3.30;99.90
16247;DHT22;8231;50.866;7.944;2023-02-15T01:04:49;-3.30;99.90
16247;DHT22;8231;50.866;7.944;2023-02-15T01:07:17;-3.30;99.90
16247;DHT22;8231;50.866;7.944;2023-02-15T01:09:45;-3.30;99.90
16247;DHT22;8231;50.866;7.944;2023-02-15T01:12:13;-3.30;99.90
16247;DHT22;8231;50.866;7.944;2023-02-15T01:14:42;-3.30;99.90
16247;DHT22;8231;50.866;7.944;2023-02-15T01:17:10;-3.40;99.90
16247;DHT22;8231;50.866;7.944;2023-02-15T01:19:38;-3.30;99.90
16247;DHT22;8231;50.866;7.944;2023-02-15T01:22:07;-3.30;99.90
16247;DHT22;8231;50.866;7.944;2023-02-15T01:24:35;-3.30;99.90
16247;DHT22;8231;50.866;7.944;2023-02-15T01:27:04;-3.30;99.90
16247;DHT22;8231;50.866;7.944;2023-02-15T01:29:32;-3.30;99.90
16247;DHT22;8231;50.866;7.944;2023-02-15T01:32:00;-3.30;99.90
16247;DHT22;8231;50.866;7.944;2023-02-15T01:34:29;-3.40;99.90
16247;DHT22;8231;50.866;7.944;2023-02-15T01:36:57;-3.40;99.90
16247;DHT22;8231;50.866;7.944;2023-02-15T01:39:27;-3.40;99.90
16247;DHT22;8231;50.866;7.944;2023-02-15T01:41:56;-3.40;99.90
16247;DHT22;8231;50.866;7.944;2023-02-15T01:44:47;-3.40;99.90
16247;DHT22;8231;50.866;7.944;2023-02-15T01:47:18;-3.40;99.90
16247;DHT22;8231;50.866;7.944;2023-02-15T01:49:48;-3.40;99.90
16247;DHT22;8231;50.866;7.944;2023-02-15T01:52:17;-3.40;99.90
16247;DHT22;8231;50.866;7.944;2023-02-15T01:55:10;-3.40;99.90
16247;DHT22;8231;50.866;7.944;2023-02-15T01:57:39;-3.40;99.90
16247;DHT22;8231;50.866;7.944;2023-02-15T02:00:09;-3.40;99.90
16247;DHT22;8231;50.866;7.944;2023-02-15T02:02:42;-3.40;99.90
16247;DHT22;8231;50.866;7.944;2023-02-15T02:05:11;-3.40;99.90
16247;DHT22;8231;50.866;7.944;2023-02-15T02:07:42;-3.40;99.90
16247;DHT22;8231;50.866;7.944;2023-02-15T02:10:15;-3.40;99.90
16247;DHT22;8231;50.866;7.944;2023-02-15T02:12:45;-3.40;99.90
16247;DHT22;8231;50.866;7.944;2023-02-15T02:15:15;-3.40;99.90
16247;DHT22;8231;50.866;7.944;2023-02-15T02:17:54;-3.40;99.90
16247;DHT22;8231;50.866;7.944;2023-02-15T02:21:11;-3.40;99.90
16247;DHT22;8231;50.866;7.944;2023-02-15T02:27:03;-3.50;99.90
16247;DHT22;8231;50.866;7.944;2023-02-15T02:35:59;-3.60;99.90
16247;DHT22;8231;50.866;7.944;2023-02-15T02:38:34;-3.70;99.90
16247;DHT22;8231;50.866;7.944;2023-02-15T02:41:13;-3.60;99.90
16247;DHT22;8231;50.866;7.944;2023-02-15T02:43:50;-3.60;99.90
16247;DHT22;8231;50.866;7.944;2023-02-15T02:46:22;-3.70;99.90
16247;DHT22;8231;50.866;7.944;2023-02-15T02:48:56;-3.60;99.90
16247;DHT22;8231;50.866;7.944;2023-02-15T02:51:24;-3.60;99.90
16247;DHT22;8231;50.866;7.944;2023-02-15T02:53:54;-3.60;99.90
16247;DHT22;8231;50.866;7.944;2023-02-15T02:56:26;-3.60;99.90
16247;DHT22;8231;50.866;7.944;2023-02-15T02:58:59;-3.60;99.90
16247;DHT22;8231;50.866;7.944;2023-02-15T03:01:33;-3.70;99.90
16247;DHT22;8231;50.866;7.944;2023-02-15T03:04:06;-3.70;99.90
16247;DHT22;8231;50.866;7.944;2023-02-15T03:06:39;-3.70;99.90
16247;DHT22;8231;50.866;7.944;2023-02-15T03:09:10;-3.80;99.90
16247;DHT22;8231;50.866;7.944;2023-02-15T03:11:43;-3.80;99.90
16247;DHT22;8231;50.866;7.944;2023-02-15T03:14:14;-3.80;99.90
16247;DHT22;8231;50.866;7.944;2023-02-15T03:16:47;-3.80;99.90
16247;DHT22;8231;50.866;7.944;2023-02-15T03:19:20;-3.90;99.90
16247;DHT22;8231;50.866;7.944;2023-02-15T03:21:51;-3.90;99.90
16247;DHT22;8231;50.866;7.944;2023-02-15T03:24:33;-3.90;99.90
16247;DHT22;8231;50.866;7.944;2023-02-15T03:27:09;-4.00;99.90
16247;DHT22;8231;50.866;7.944;2023-02-15T03:29:39;-4.00;99.90
16247;DHT22;8231;50.866;7.944;2023-02-15T03:32:09;-4.00;99.90
16247;DHT22;8231;50.866;7.944;2023-02-15T03:34:41;-4.00;99.90
16247;DHT22;8231;50.866;7.944;2023-02-15T03:37:14;-4.00;99.90
16247;DHT22;8231;50.866;7.944;2023-02-15T03:40:11;-4.00;99.90
16247;DHT22;8231;50.866;7.944;2023-02-15T03:43:01;-4.00;99.90
16247;DHT22;8231;50.866;7.944;2023-02-15T03:45:33;-4.00;99.90
16247;DHT22;8231;50.866;7.944;2023-02-15T03:48:03;-4.00;99.90
16247;DHT22;8231;50.866;7.944;2023-02-15T03:50:37;-4.10;99.90
16247;DHT22;8231;50.866;7.944;2023-02-15T03:53:25;-4.10;99.90
16247;DHT22;8231;50.866;7.944;2023-02-15T03:55:54;-4.10;99.90
16247;DHT22;8231;50.866;7.944;2023-02-15T03:58:23;-4.10;99.90
16247;DHT22;8231;50.866;7.944;2023-02-15T04:01:15;-3.60;99.90
16247;DHT22;8231;50.866;7.944;2023-02-15T04:04:08;-4.10;99.90
16247;DHT22;8231;50.866;7.944;2023-02-15T04:06:39;-4.60;99.90
16247;DHT22;8231;50.866;7.944;2023-02-15T04:09:07;-3.80;99.90
16247;DHT22;8231;50.866;7.944;2023-02-15T04:12:01;-4.10;99.90
16247;DHT22;8231;50.866;7.944;2023-02-15T04:14:30;-4.10;99.90
16247;DHT22;8231;50.866;7.944;2023-02-15T04:17:15;-4.10;99.90
16247;DHT22;8231;50.866;7.944;2023-02-15T04:19:43;-4.10;99.90
16247;DHT22;8231;50.866;7.944;2023-02-15T04:22:30;-4.10;99.90
16247;DHT22;8231;50.866;7.944;2023-02-15T04:25:16;-4.20;99.90
16247;DHT22;8231;50.866;7.944;2023-02-15T04:27:45;-4.20;99.90
16247;DHT22;8231;50.866;7.944;2023-02-15T04:30:15;-3.70;99.90
16247;DHT22;8231;50.866;7.944;2023-02-15T04:32:44;-4.20;99.90
16247;DHT22;8231;50.866;7.944;2023-02-15T04:35:13;-4.10;99.90
16247;DHT22;8231;50.866;7.944;2023-02-15T04:37:43;-4.20;99.90
16247;DHT22;8231;50.866;7.944;2023-02-15T04:40:13;-4.20;99.90
16247;DHT22;8231;50.866;7.944;2023-02-15T04:42:47;-4.20;99.90
16247;DHT22;8231;50.866;7.944;2023-02-15T04:45:15;-4.20;99.90
16247;DHT22;8231;50.866;7.944;2023-02-15T04:47:43;-4.20;99.90
16247;DHT22;8231;50.866;7.944;2023-02-15T04:50:12;-4.20;99.90
16247;DHT22;8231;50.866;7.944;2023-02-15T04:52:41;-4.30;99.90
16247;DHT22;8231;50.866;7.944;2023-02-15T04:55:09;-4.30;99.90
16247;DHT22;8231;50.866;7.944;2023-02-15T04:57:38;-4.30;99.90
16247;DHT22;8231;50.866;7.944;2023-02-15T05:00:07;-4.30;99.90
16247;DHT22;8231;50.866;7.944;2023-02-15T05:02:36;-4.30;99.90
16247;DHT22;8231;50.866;7.944;2023-02-15T05:05:05;-4.30;99.90
16247;DHT22;8231;50.866;7.944;2023-02-15T05:07:34;-4.30;99.90
16247;DHT22;8231;50.866;7.944;2023-02-15T05:10:04;-4.30;99.90
16247;DHT22;8231;50.866;7.944;2023-02-15T05:12:32;-4.40;99.90
16247;DHT22;8231;50.866;7.944;2023-02-15T05:15:00;-4.40;99.90
16247;DHT22;8231;50.866;7.944;2023-02-15T05:17:28;-4.30;99.90
16247;DHT22;8231;50.866;7.944;2023-02-15T05:19:56;-4.30;99.90
16247;DHT22;8231;50.866;7.944;2023-02-15T05:22:24;-4.30;99.90
16247;DHT22;8231;50.866;7.944;2023-02-15T05:24:52;-4.30;99.90
16247;DHT22;8231;50.866;7.944;2023-02-15T05:27:39;-4.40;99.90
16247;DHT22;8231;50.866;7.944;2023-02-15T05:30:25;-4.30;99.90
16247;DHT22;8231;50.866;7.944;2023-02-15T05:32:53;-4.30;99.90
16247;DHT22;8231;50.866;7.944;2023-02-15T05:35:21;-4.30;99.90
16247;DHT22;8231;50.866;7.944;2023-02-15T05:37:49;-4.30;99.90
16247;DHT22;8231;50.866;7.944;2023-02-15T05:40:18;-4.30;99.90
16247;DHT22;8231;50.866;7.944;2023-02-15T05:42:47;-4.40;99.90
16247;DHT22;8231;50.866;7.944;2023-02-15T05:45:15;-4.40;99.90
16247;DHT22;8231;50.866;7.944;2023-02-15T05:47:44;-4.40;99.90
16247;DHT22;8231;50.866;7.944;2023-02-15T05:50:13;-4.40;99.90
16247;DHT22;8231;50.866;7.944;2023-02-15T05:52:41;-4.40;99.90
16247;DHT22;8231;50.866;7.944;2023-02-15T05:55:09;-4.40;99.90
16247;DHT22;8231;50.866;7.944;2023-02-15T05:57:37;-4.40;99.90
16247;DHT22;8231;50.866;7.944;2023-02-15T06:00:08;-4.40;99.90
16247;DHT22;8231;50.866;7.944;2023-02-15T06:02:40;-4.40;99.90
16247;DHT22;8231;50.866;7.944;2023-02-15T06:05:08;-4.40;99.90
16247;DHT22;8231;50.866;7.944;2023-02-15T06:07:36;-4.40;99.90
16247;DHT22;8231;50.866;7.944;2023-02-15T06:10:06;-4.40;99.90
16247;DHT22;8231;50.866;7.944;2023-02-15T06:12:34;-4.40;99.90
16247;DHT22;8231;50.866;7.944;2023-02-15T06:15:03;-4.40;99.90
16247;DHT22;8231;50.866;7.944;2023-02-15T06:17:33;-4.50;99.90
16247;DHT22;8231;50.866;7.944;2023-02-15T06:20:02;-4.50;99.90
16247;DHT22;8231;50.866;7.944;2023-02-15T06:27:03;-4.40;99.90
16247;DHT22;8231;50.866;7.944;2023-02-15T06:29:31;-4.40;99.90
16247;DHT22;8231;50.866;7.944;2023-02-15T06:31:59;-4.50;99.90
16247;DHT22;8231;50.866;7.944;2023-02-15T06:34:29;-4.50;99.90
16247;DHT22;8231;50.866;7.944;2023-02-15T06:36:57;-4.40;99.90
16247;DHT22;8231;50.866;7.944;2023-02-15T06:39:25;-4.40;99.90
16247;DHT22;8231;50.866;7.944;2023-02-15T06:41:53;-4.40;99.90
16247;DHT22;8231;50.866;7.944;2023-02-15T06:44:21;-4.50;99.90
16247;DHT22;8231;50.866;7.944;2023-02-15T06:46:49;-4.50;99.90
16247;DHT22;8231;50.866;7.944;2023-02-15T06:49:17;-4.50;99.90
16247;DHT22;8231;50.866;7.944;2023-02-15T06:51:47;-4.50;99.90
16247;DHT22;8231;50.866;7.944;2023-02-15T06:54:15;-4.50;99.90
16247;DHT22;8231;50.866;7.944;2023-02-15T06:56:43;-4.50;99.90
16247;DHT22;8231;50.866;7.944;2023-02-15T06:59:11;-4.40;99.90
16247;DHT22;8231;50.866;7.944;2023-02-15T07:01:39;-4.50;99.90
16247;DHT22;8231;50.866;7.944;2023-02-15T07:04:07;-4.40;99.90
16247;DHT22;8231;50.866;7.944;2023-02-15T07:06:35;-4.40;99.90
16247;DHT22;8231;50.866;7.944;2023-02-15T07:09:04;-4.40;99.90
16247;DHT22;8231;50.866;7.944;2023-02-15T07:11:33;-4.40;99.90
16247;DHT22;8231;50.866;7.944;2023-02-15T07:14:18;-4.30;99.90
16247;DHT22;8231;50.866;7.944;2023-02-15T07:16:47;-4.30;99.90
16247;DHT22;8231;50.866;7.944;2023-02-15T07:19:15;-4.30;99.90
16247;DHT22;8231;50.866;7.944;2023-02-15T07:21:43;-4.20;99.90
16247;DHT22;8231;50.866;7.944;2023-02-15T07:24:14;-4.20;99.90
16247;DHT22;8231;50.866;7.944;2023-02-15T07:26:42;-4.10;99.90
16247;DHT22;8231;50.866;7.944;2023-02-15T07:29:10;-4.10;99.90
16247;DHT22;8231;50.866;7.944;2023-02-15T07:31:38;-4.10;99.90
16247;DHT22;8231;50.866;7.944;2023-02-15T07:34:06;-4.00;99.90
16247;DHT22;8231;50.866;7.944;2023-02-15T07:36:34;-4.00;99.90
16247;DHT22;8231;50.866;7.944;2023-02-15T07:39:03;-3.90;99.90
16247;DHT22;8231;50.866;7.944;2023-02-15T07:41:33;-3.90;99.90
16247;DHT22;8231;50.866;7.944;2023-02-15T07:44:01;-3.90;99.90
16247;DHT22;8231;50.866;7.944;2023-02-15T07:46:29;-3.80;99.90
16247;DHT22;8231;50.866;7.944;2023-02-15T07:48:57;-3.80;99.90
16247;DHT22;8231;50.866;7.944;2023-02-15T07:51:26;-3.70;99.90
16247;DHT22;8231;50.866;7.944;2023-02-15T07:53:54;-3.70;99.90
16247;DHT22;8231;50.866;7.944;2023-02-15T07:56:22;-3.60;99.90
16247;DHT22;8231;50.866;7.944;2023-02-15T07:58:52;-3.50;99.90
16247;DHT22;8231;50.866;7.944;2023-02-15T08:01:24;-3.60;99.90
16247;DHT22;8231;50.866;7.944;2023-02-15T08:03:53;-3.50;99.90
16247;DHT22;8231;50.866;7.944;2023-02-15T08:06:25;-3.50;99.90
16247;DHT22;8231;50.866;7.944;2023-02-15T08:08:53;-3.40;99.90
16247;DHT22;8231;50.866;7.944;2023-02-15T08:11:23;-3.30;99.90
16247;DHT22;8231;50.866;7.944;2023-02-15T08:13:58;-3.30;99.90
16247;DHT22;8231;50.866;7.944;2023-02-15T08:16:29;-3.20;99.90
16247;DHT22;8231;50.866;7.944;2023-02-15T08:19:00;-3.20;99.90
16247;DHT22;8231;50.866;7.944;2023-02-15T08:21:29;-3.10;99.90
16247;DHT22;8231;50.866;7.944;2023-02-15T08:23:59;-3.10;99.90
16247;DHT22;8231;50.866;7.944;2023-02-15T08:26:27;-3.00;99.90
16247;DHT22;8231;50.866;7.944;2023-02-15T08:28:58;-2.90;99.90
16247;DHT22;8231;50.866;7.944;2023-02-15T08:31:27;-2.90;99.90
16247;DHT22;8231;50.866;7.944;2023-02-15T08:33:57;-2.80;99.90
16247;DHT22;8231;50.866;7.944;2023-02-15T08:36:26;-2.70;99.90
16247;DHT22;8231;50.866;7.944;2023-02-15T08:38:57;-2.60;99.90
16247;DHT22;8231;50.866;7.944;2023-02-15T08:41:27;-2.50;99.90
16247;DHT22;8231;50.866;7.944;2023-02-15T08:44:00;-2.40;99.90
16247;DHT22;8231;50.866;7.944;2023-02-15T08:46:29;-2.20;99.90
16247;DHT22;8231;50.866;7.944;2023-02-15T08:48:58;-1.90;99.90
16247;DHT22;8231;50.866;7.944;2023-02-15T08:51:28;-1.70;99.90
16247;DHT22;8231;50.866;7.944;2023-02-15T08:53:59;-1.60;99.90
16247;DHT22;8231;50.866;7.944;2023-02-15T08:56:30;-1.50;99.90
16247;DHT22;8231;50.866;7.944;2023-02-15T08:59:01;-1.40;99.90
16247;DHT22;8231;50.866;7.944;2023-02-15T09:01:30;-1.30;99.90
16247;DHT22;8231;50.866;7.944;2023-02-15T09:04:00;-1.20;99.90
16247;DHT22;8231;50.866;7.944;2023-02-15T09:06:29;-1.00;99.90
16247;DHT22;8231;50.866;7.944;2023-02-15T09:08:57;-0.80;99.90
16247;DHT22;8231;50.866;7.944;2023-02-15T09:11:27;-0.50;99.90
16247;DHT22;8231;50.866;7.944;2023-02-15T09:13:57;-0.20;99.90
16247;DHT22;8231;50.866;7.944;2023-02-15T09:16:29;0.10;99.90
16247;DHT22;8231;50.866;7.944;2023-02-15T09:18:58;0.40;99.90
16247;DHT22;8231;50.866;7.944;2023-02-15T09:21:28;0.70;99.90
16247;DHT22;8231;50.866;7.944;2023-02-15T09:23:58;1.00;99.90
16247;DHT22;8231;50.866;7.944;2023-02-15T09:26:28;1.30;99.90
16247;DHT22;8231;50.866;7.944;2023-02-15T09:28:58;1.60;99.90
16247;DHT22;8231;50.866;7.944;2023-02-15T09:31:30;1.90;99.90
16247;DHT22;8231;50.866;7.944;2023-02-15T09:33:59;2.30;99.90
16247;DHT22;8231;50.866;7.944;2023-02-15T09:36:30;2.60;99.90
16247;DHT22;8231;50.866;7.944;2023-02-15T09:39:01;3.10;99.90
16247;DHT22;8231;50.866;7.944;2023-02-15T09:44:27;3.70;99.90
16247;DHT22;8231;50.866;7.944;2023-02-15T09:47:22;4.30;99.90
16247;DHT22;8231;50.866;7.944;2023-02-15T09:49:58;4.40;99.90
16247;DHT22;8231;50.866;7.944;2023-02-15T09:52:41;4.50;99.90
16247;DHT22;8231;50.866;7.944;2023-02-15T09:55:26;4.50;99.90
16247;DHT22;8231;50.866;7.944;2023-02-15T09:58:04;4.70;99.90
16247;DHT22;8231;50.866;7.944;2023-02-15T10:00:42;4.80;99.90
16247;DHT22;8231;50.866;7.944;2023-02-15T10:03:33;5.00;99.90
16247;DHT22;8231;50.866;7.944;2023-02-15T10:06:14;5.10;99.90
16247;DHT22;8231;50.866;7.944;2023-02-15T10:08:53;5.10;99.90
16247;DHT22;8231;50.866;7.944;2023-02-15T10:11:35;5.20;99.90
16247;DHT22;8231;50.866;7.944;2023-02-15T10:14:25;5.40;99.90
16247;DHT22;8231;50.866;7.944;2023-02-15T10:17:14;5.50;99.90
16247;DHT22;8231;50.866;7.944;2023-02-15T10:19:55;5.70;99.90
16247;DHT22;8231;50.866;7.944;2023-02-15T10:22:36;5.80;99.90
16247;DHT22;8231;50.866;7.944;2023-02-15T10:25:14;5.90;99.90
16247;DHT22;8231;50.866;7.944;2023-02-15T10:27:46;5.90;99.90
16247;DHT22;8231;50.866;7.944;2023-02-15T10:30:14;6.10;99.90
16247;DHT22;8231;50.866;7.944;2023-02-15T10:32:52;6.40;99.90
16247;DHT22;8231;50.866;7.944;2023-02-15T10:35:33;6.70;99.90
16247;DHT22;8231;50.866;7.944;2023-02-15T10:38:17;7.00;99.90
16247;DHT22;8231;50.866;7.944;2023-02-15T10:40:56;7.20;99.90
16247;DHT22;8231;50.866;7.944;2023-02-15T10:43:45;7.20;99.90
16247;DHT22;8231;50.866;7.944;2023-02-15T10:46:32;7.30;99.90
16247;DHT22;8231;50.866;7.944;2023-02-15T10:49:25;7.50;99.90
16247;DHT22;8231;50.866;7.944;2023-02-15T10:52:08;7.70;99.90
16247;DHT22;8231;50.866;7.944;2023-02-15T10:54:45;7.80;99.90
16247;DHT22;8231;50.866;7.944;2023-02-15T10:57:20;8.10;99.90
16247;DHT22;8231;50.866;7.944;2023-02-15T11:00:02;8.30;99.90
16247;DHT22;8231;50.866;7.944;2023-02-15T11:02:47;8.60;99.90
16247;DHT22;8231;50.866;7.944;2023-02-15T11:05:34;8.80;99.90
16247;DHT22;8231;50.866;7.944;2023-02-15T11:08:07;9.00;99.90
16247;DHT22;8231;50.866;7.944;2023-02-15T11:10:38;9.00;99.90
16247;DHT22;8231;50.866;7.944;2023-02-15T11:13:10;9.20;99.90
16247;DHT22;8231;50.866;7.944;2023-02-15T11:15:42;9.60;99.90
16247;DHT22;8231;50.866;7.944;2023-02-15T11:18:19;9.70;99.90
16247;DHT22;8231;50.866;7.944;2023-02-15T11:20:53;9.80;99.90
16247;DHT22;8231;50.866;7.944;2023-02-15T11:23:25;10.00;99.90
16247;DHT22;8231;50.866;7.944;2023-02-15T11:25:56;10.00;99.90
16247;DHT22;8231;50.866;7.944;2023-02-15T11:28:30;10.00;99.90
16247;DHT22;8231;50.866;7.944;2023-02-15T11:31:02;9.90;99.90
16247;DHT22;8231;50.866;7.944;2023-02-15T11:33:41;9.70;99.90
16247;DHT22;8231;50.866;7.944;2023-02-15T11:36:15;9.60;99.90
16247;DHT22;8231;50.866;7.944;2023-02-15T11:38:46;9.50;99.90
16247;DHT22;8231;50.866;7.944;2023-02-15T11:41:19;9.50;99.90
16247;DHT22;8231;50.866;7.944;2023-02-15T11:43:54;9.50;99.90
16247;DHT22;8231;50.866;7.944;2023-02-15T11:46:25;9.70;99.90
16247;DHT22;8231;50.866;7.944;2023-02-15T11:48:53;9.80;99.90
16247;DHT22;8231;50.866;7.944;2023-02-15T11:51:22;10.10;99.90
16247;DHT22;8231;50.866;7.944;2023-02-15T11:53:52;10.20;99.90
16247;DHT22;8231;50.866;7.944;2023-02-15T11:56:22;10.40;99.90
16247;DHT22;8231;50.866;7.944;2023-02-15T11:58:54;10.50;99.90
16247;DHT22;8231;50.866;7.944;2023-02-15T12:01:32;10.60;99.90
16247;DHT22;8231;50.866;7.944;2023-02-15T12:04:04;10.70;99.90
16247;DHT22;8231;50.866;7.944;2023-02-15T12:06:34;10.70;99.90
16247;DHT22;8231;50.866;7.944;2023-02-15T12:09:15;10.90;99.90
16247;DHT22;8231;50.866;7.944;2023-02-15T12:11:49;11.10;99.90
16247;DHT22;8231;50.866;7.944;2023-02-15T12:14:17;11.10;99.90
16247;DHT22;8231;50.866;7.944;2023-02-15T12:16:47;11.40;99.90
16247;DHT22;8231;50.866;7.944;2023-02-15T12:19:36;11.70;99.90
16247;DHT22;8231;50.866;7.944;2023-02-15T12:22:19;12.20;99.90
16247;DHT22;8231;50.866;7.944;2023-02-15T12:24:49;13.00;99.90
16247;DHT22;8231;50.866;7.944;2023-02-15T12:27:23;13.80;99.90
16247;DHT22;8231;50.866;7.944;2023-02-15T12:29:53;14.20;98.70
16247;DHT22;8231;50.866;7.944;2023-02-15T12:32:25;14.90;98.90
16247;DHT22;8231;50.866;7.944;2023-02-15T12:34:59;15.70;97.70
16247;DHT22;8231;50.866;7.944;2023-02-15T12:37:31;16.40;94.90
16247;DHT22;8231;50.866;7.944;2023-02-15T12:40:19;17.30;92.70
16247;DHT22;8231;50.866;7.944;2023-02-15T12:42:47;18.20;88.90
16247;DHT22;8231;50.866;7.944;2023-02-15T12:45:24;18.50;85.90
16247;DHT22;8231;50.866;7.944;2023-02-15T12:48:09;19.20;80.20
16247;DHT22;8231;50.866;7.944;2023-02-15T12:50:37;19.70;74.00
16247;DHT22;8231;50.866;7.944;2023-02-15T12:53:10;20.20;74.10
16247;DHT22;8231;50.866;7.944;2023-02-15T12:55:52;20.00;68.90
16247;DHT22;8231;50.866;7.944;2023-02-15T12:58:22;18.90;70.30
16247;DHT22;8231;50.866;7.944;2023-02-15T13:01:11;17.40;73.00
16247;DHT22;8231;50.866;7.944;2023-02-15T13:03:55;16.40;75.20
16247;DHT22;8231;50.866;7.944;2023-02-15T13:06:25;15.50;78.80
16247;DHT22;8231;50.866;7.944;2023-02-15T13:08:56;14.80;82.10
16247;DHT22;8231;50.866;7.944;2023-02-15T13:11:29;14.60;84.80
16247;DHT22;8231;50.866;7.944;2023-02-15T13:14:02;14.20;83.50
16247;DHT22;8231;50.866;7.944;2023-02-15T13:16:32;14.10;86.60
16247;DHT22;8231;50.866;7.944;2023-02-15T13:19:04;15.40;85.70
16247;DHT22;8231;50.866;7.944;2023-02-15T13:21:36;17.50;80.70
16247;DHT22;8231;50.866;7.944;2023-02-15T13:24:10;19.30;73.90
16247;DHT22;8231;50.866;7.944;2023-02-15T13:26:42;20.90;68.00
16247;DHT22;8231;50.866;7.944;2023-02-15T13:29:17;21.70;64.90
16247;DHT22;8231;50.866;7.944;2023-02-15T13:31:46;23.00;61.80
16247;DHT22;8231;50.866;7.944;2023-02-15T13:34:17;24.10;57.90
16247;DHT22;8231;50.866;7.944;2023-02-15T13:36:53;25.00;55.10
16247;DHT22;8231;50.866;7.944;2023-02-15T13:39:25;25.80;51.60
16247;DHT22;8231;50.866;7.944;2023-02-15T13:42:03;26.30;49.10
16247;DHT22;8231;50.866;7.944;2023-02-15T13:44:49;26.40;46.80
16247;DHT22;8231;50.866;7.944;2023-02-15T13:47:23;26.30;46.00
16247;DHT22;8231;50.866;7.944;2023-02-15T13:50:10;26.50;45.50
16247;DHT22;8231;50.866;7.944;2023-02-15T13:52:49;26.90;44.20
16247;DHT22;8231;50.866;7.944;2023-02-15T13:55:27;26.90;43.00
16247;DHT22;8231;50.866;7.944;2023-02-15T14:01:09;27.10;42.10
16247;DHT22;8231;50.866;7.944;2023-02-15T14:03:59;27.20;42.10
16247;DHT22;8231;50.866;7.944;2023-02-15T14:07:02;27.80;40.00
16247;DHT22;8231;50.866;7.944;2023-02-15T14:09:43;27.70;40.60
16247;DHT22;8231;50.866;7.944;2023-02-15T14:12:35;28.10;41.00
16247;DHT22;8231;50.866;7.944;2023-02-15T14:15:21;28.40;39.90
16247;DHT22;8231;50.866;7.944;2023-02-15T14:18:04;29.00;38.20
16247;DHT22;8231;50.866;7.944;2023-02-15T14:20:44;28.60;38.50
16247;DHT22;8231;50.866;7.944;2023-02-15T14:23:22;28.80;38.60
16247;DHT22;8231;50.866;7.944;2023-02-15T14:26:00;28.40;38.50
16247;DHT22;8231;50.866;7.944;2023-02-15T14:28:34;28.00;38.70
16247;DHT22;8231;50.866;7.944;2023-02-15T14:31:06;27.40;37.90
16247;DHT22;8231;50.866;7.944;2023-02-15T14:33:39;26.70;40.00
16247;DHT22;8231;50.866;7.944;2023-02-15T14:36:15;26.30;40.10
16247;DHT22;8231;50.866;7.944;2023-02-15T14:38:53;26.00;41.40
16247;DHT22;8231;50.866;7.944;2023-02-15T14:41:25;25.40;41.60
16247;DHT22;8231;50.866;7.944;2023-02-15T14:44:01;25.00;41.50
16247;DHT22;8231;50.866;7.944;2023-02-15T14:46:38;24.40;42.20
16247;DHT22;8231;50.866;7.944;2023-02-15T14:49:12;23.30;44.70
16247;DHT22;8231;50.866;7.944;2023-02-15T14:51:58;23.30;44.40
16247;DHT22;8231;50.866;7.944;2023-02-15T14:54:58;23.10;44.00
16247;DHT22;8231;50.866;7.944;2023-02-15T14:57:35;22.20;44.90
16247;DHT22;8231;50.866;7.944;2023-02-15T15:00:32;20.50;46.90
16247;DHT22;8231;50.866;7.944;2023-02-15T15:03:18;19.10;49.90
16247;DHT22;8231;50.866;7.944;2023-02-15T15:05:51;18.30;51.90
16247;DHT22;8231;50.866;7.944;2023-02-15T15:08:25;17.60;53.30
16247;DHT22;8231;50.866;7.944;2023-02-15T15:10:54;16.60;55.70
16247;DHT22;8231;50.866;7.944;2023-02-15T15:13:54;15.60;57.50
16247;DHT22;8231;50.866;7.944;2023-02-15T15:16:50;14.80;60.20
16247;DHT22;8231;50.866;7.944;2023-02-15T15:22:33;13.20;63.50
16247;DHT22;8231;50.866;7.944;2023-02-15T15:25:02;12.50;65.70
16247;DHT22;8231;50.866;7.944;2023-02-15T15:27:46;12.40;66.60
16247;DHT22;8231;50.866;7.944;2023-02-15T15:30:48;11.70;70.30
16247;DHT22;8231;50.866;7.944;2023-02-15T15:39:42;10.80;77.00
16247;DHT22;8231;50.866;7.944;2023-02-15T15:42:28;10.50;80.80
16247;DHT22;8231;50.866;7.944;2023-02-15T15:48:23;10.00;86.60
16247;DHT22;8231;50.866;7.944;2023-02-15T15:50:58;9.60;91.00
16247;DHT22;8231;50.866;7.944;2023-02-15T15:53:29;9.30;91.90
16247;DHT22;8231;50.866;7.944;2023-02-15T15:56:04;9.10;93.70
16247;DHT22;8231;50.866;7.944;2023-02-15T15:58:33;8.90;95.50
16247;DHT22;8231;50.866;7.944;2023-02-15T16:01:06;8.50;97.30
16247;DHT22;8231;50.866;7.944;2023-02-15T16:03:36;8.30;99.50
16247;DHT22;8231;50.866;7.944;2023-02-15T16:06:05;8.10;99.90
16247;DHT22;8231;50.866;7.944;2023-02-15T16:08:36;7.90;99.90
16247;DHT22;8231;50.866;7.944;2023-02-15T16:11:12;7.80;99.90
16247;DHT22;8231;50.866;7.944;2023-02-15T16:13:42;7.60;99.90
16247;DHT22;8231;50.866;7.944;2023-02-15T16:16:12;7.40;99.90
16247;DHT22;8231;50.866;7.944;2023-02-15T16:18:40;7.20;99.90
16247;DHT22;8231;50.866;7.944;2023-02-15T16:21:15;7.00;99.90
16247;DHT22;8231;50.866;7.944;2023-02-15T16:24:02;7.00;99.90
16247;DHT22;8231;50.866;7.944;2023-02-15T16:26:48;6.80;99.90
16247;DHT22;8231;50.866;7.944;2023-02-15T16:29:27;6.50;99.90
16247;DHT22;8231;50.866;7.944;2023-02-15T16:32:00;6.30;99.90
16247;DHT22;8231;50.866;7.944;2023-02-15T16:34:28;6.20;99.90
16247;DHT22;8231;50.866;7.944;2023-02-15T16:37:15;6.00;99.90
16247;DHT22;8231;50.866;7.944;2023-02-15T16:39:44;5.80;99.90
16247;DHT22;8231;50.866;7.944;2023-02-15T16:42:17;6.00;99.90
16247;DHT22;8231;50.866;7.944;2023-02-15T16:44:47;5.40;99.90
16247;DHT22;8231;50.866;7.944;2023-02-15T16:47:18;5.30;99.90
16247;DHT22;8231;50.866;7.944;2023-02-15T16:49:49;5.10;99.90
16247;DHT22;8231;50.866;7.944;2023-02-15T16:52:21;5.00;99.90
16247;DHT22;8231;50.866;7.944;2023-02-15T16:54:54;4.80;99.90
16247;DHT22;8231;50.866;7.944;2023-02-15T16:57:27;4.60;99.90
16247;DHT22;8231;50.866;7.944;2023-02-15T17:00:00;4.40;99.90
16247;DHT22;8231;50.866;7.944;2023-02-15T17:02:32;4.30;99.90